sensor_id;sensor_type;location;lat;lon;timestamp;P1;durP1;ratioP1;P2;durP2;ratioP2
40871;SDS011;26591;43.264;26.940;2023-12-20T00:00:59;34.03;;;21.52;;
40871;SDS011;26591;43.264;26.940;2023-12-20T00:03:24;39.15;;;23.55;;
40871;SDS011;26591;43.264;26.940;2023-12-20T00:05:50;35.75;;;21.25;;
40871;SDS011;26591;43.264;26.940;2023-12-20T00:08:16;41.30;;;25.00;;
40871;SDS011;26591;43.264;26.940;2023-12-20T00:10:41;58.60;;;33.38;;
40871;SDS011;26591;43.264;26.940;2023-12-20T00:13:08;35.92;;;22.15;;
40871;SDS011;26591;43.264;26.940;2023-12-20T00:15:34;45.97;;;25.90;;
40871;SDS011;26591;43.264;26.940;2023-12-20T00:17:59;78.03;;;37.58;;
40871;SDS011;26591;43.264;26.940;2023-12-20T00:20:26;59.20;;;30.05;;
40871;SDS011;26591;43.264;26.940;2023-12-20T00:22:52;48.35;;;26.95;;
40871;SDS011;26591;43.264;26.940;2023-12-20T00:25:17;44.30;;;24.70;;
40871;SDS011;26591;43.264;26.940;2023-12-20T00:27:43;47.30;;;25.33;;
40871;SDS011;26591;43.264;26.940;2023-12-20T00:30:09;38.63;;;23.48;;
40871;SDS011;26591;43.264;26.940;2023-12-20T00:32:35;50.67;;;28.65;;
40871;SDS011;26591;43.264;26.940;2023-12-20T00:35:01;43.95;;;24.60;;
40871;SDS011;26591;43.264;26.940;2023-12-20T00:37:26;40.65;;;21.95;;
40871;SDS011;26591;43.264;26.940;2023-12-20T00:39:52;34.58;;;20.23;;
40871;SDS011;26591;43.264;26.940;2023-12-20T00:42:18;33.08;;;21.08;;
40871;SDS011;26591;43.264;26.940;2023-12-20T00:44:43;95.57;;;38.63;;
40871;SDS011;26591;43.264;26.940;2023-12-20T00:47:09;134.35;;;52.33;;
40871;SDS011;26591;43.264;26.940;2023-12-20T00:49:35;91.75;;;34.08;;
40871;SDS011;26591;43.264;26.940;2023-12-20T00:52:00;31.85;;;16.60;;
40871;SDS011;26591;43.264;26.940;2023-12-20T00:54:26;37.47;;;18.88;;
40871;SDS011;26591;43.264;26.940;2023-12-20T00:56:52;56.00;;;28.98;;
40871;SDS011;26591;43.264;26.940;2023-12-20T00:59:17;68.53;;;32.67;;
40871;SDS011;26591;43.264;26.940;2023-12-20T01:01:44;88.80;;;42.72;;
40871;SDS011;26591;43.264;26.940;2023-12-20T01:04:10;83.13;;;44.83;;
40871;SDS011;26591;43.264;26.940;2023-12-20T01:06:35;71.40;;;39.42;;
40871;SDS011;26591;43.264;26.940;2023-12-20T01:09:02;64.80;;;36.72;;
40871;SDS011;26591;43.264;26.940;2023-12-20T01:11:30;49.08;;;29.33;;
40871;SDS011;26591;43.264;26.940;2023-12-20T01:13:56;41.85;;;24.70;;
40871;SDS011;26591;43.264;26.940;2023-12-20T01:16:24;38.33;;;22.83;;
40871;SDS011;26591;43.264;26.940;2023-12-20T01:18:49;32.75;;;20.77;;
40871;SDS011;26591;43.264;26.940;2023-12-20T01:21:15;40.45;;;24.10;;
40871;SDS011;26591;43.264;26.940;2023-12-20T01:23:40;34.70;;;22.27;;
40871;SDS011;26591;43.264;26.940;2023-12-20T01:26:06;37.03;;;22.60;;
40871;SDS011;26591;43.264;26.940;2023-12-20T01:28:31;38.10;;;20.55;;
40871;SDS011;26591;43.264;26.940;2023-12-20T01:30:57;29.85;;;17.83;;
40871;SDS011;26591;43.264;26.940;2023-12-20T01:33:23;34.95;;;20.80;;
40871;SDS011;26591;43.264;26.940;2023-12-20T01:35:48;34.00;;;19.10;;
40871;SDS011;26591;43.264;26.940;2023-12-20T01:38:14;29.58;;;18.50;;
40871;SDS011;26591;43.264;26.940;2023-12-20T01:40:40;22.40;;;14.20;;
40871;SDS011;26591;43.264;26.940;2023-12-20T01:43:08;21.58;;;14.98;;
40871;SDS011;26591;43.264;26.940;2023-12-20T01:45:34;28.95;;;17.50;;
40871;SDS011;26591;43.264;26.940;2023-12-20T01:48:00;29.88;;;17.88;;
40871;SDS011;26591;43.264;26.940;2023-12-20T01:50:28;36.08;;;22.10;;
40871;SDS011;26591;43.264;26.940;2023-12-20T01:52:54;36.80;;;19.55;;
40871;SDS011;26591;43.264;26.940;2023-12-20T01:55:22;32.88;;;19.38;;
40871;SDS011;26591;43.264;26.940;2023-12-20T01:57:49;34.00;;;19.08;;
40871;SDS011;26591;43.264;26.940;2023-12-20T02:00:15;30.15;;;18.48;;
40871;SDS011;26591;43.264;26.940;2023-12-20T02:02:41;28.73;;;19.20;;
40871;SDS011;26591;43.264;26.940;2023-12-20T02:05:10;25.92;;;16.42;;
40871;SDS011;26591;43.264;26.940;2023-12-20T02:07:38;28.02;;;17.02;;
40871;SDS011;26591;43.264;26.940;2023-12-20T02:10:04;30.50;;;17.15;;
40871;SDS011;26591;43.264;26.940;2023-12-20T02:12:30;33.95;;;18.17;;
40871;SDS011;26591;43.264;26.940;2023-12-20T02:14:55;29.15;;;17.48;;
40871;SDS011;26591;43.264;26.940;2023-12-20T02:17:21;27.27;;;16.60;;
40871;SDS011;26591;43.264;26.940;2023-12-20T02:19:47;30.30;;;17.90;;
40871;SDS011;26591;43.264;26.940;2023-12-20T02:22:15;27.50;;;16.08;;
40871;SDS011;26591;43.264;26.940;2023-12-20T02:24:41;26.98;;;16.10;;
40871;SDS011;26591;43.264;26.940;2023-12-20T02:27:06;25.13;;;15.88;;
40871;SDS011;26591;43.264;26.940;2023-12-20T02:29:33;26.40;;;15.80;;
40871;SDS011;26591;43.264;26.940;2023-12-20T02:31:59;25.67;;;15.40;;
40871;SDS011;26591;43.264;26.940;2023-12-20T02:34:25;24.80;;;14.50;;
40871;SDS011;26591;43.264;26.940;2023-12-20T02:36:50;19.67;;;13.50;;
40871;SDS011;26591;43.264;26.940;2023-12-20T02:39:16;23.25;;;15.02;;
40871;SDS011;26591;43.264;26.940;2023-12-20T02:41:41;29.33;;;15.77;;
40871;SDS011;26591;43.264;26.940;2023-12-20T02:44:07;26.95;;;16.25;;
40871;SDS011;26591;43.264;26.940;2023-12-20T02:49:35;26.15;;;16.27;;
40871;SDS011;26591;43.264;26.940;2023-12-20T02:52:00;24.92;;;15.90;;
40871;SDS011;26591;43.264;26.940;2023-12-20T02:54:26;22.45;;;15.40;;
40871;SDS011;26591;43.264;26.940;2023-12-20T02:56:51;21.85;;;14.02;;
40871;SDS011;26591;43.264;26.940;2023-12-20T02:59:17;25.77;;;13.15;;
40871;SDS011;26591;43.264;26.940;2023-12-20T03:01:43;21.17;;;13.73;;
40871;SDS011;26591;43.264;26.940;2023-12-20T03:04:10;22.38;;;14.05;;
40871;SDS011;26591;43.264;26.940;2023-12-20T03:06:36;20.85;;;13.38;;
40871;SDS011;26591;43.264;26.940;2023-12-20T03:09:02;23.90;;;15.27;;
40871;SDS011;26591;43.264;26.940;2023-12-20T03:11:27;30.38;;;18.15;;
40871;SDS011;26591;43.264;26.940;2023-12-20T03:13:53;63.60;;;32.53;;
40871;SDS011;26591;43.264;26.940;2023-12-20T03:16:19;41.78;;;23.10;;
40871;SDS011;26591;43.264;26.940;2023-12-20T03:18:45;33.75;;;19.10;;
40871;SDS011;26591;43.264;26.940;2023-12-20T03:21:10;31.27;;;18.85;;
40871;SDS011;26591;43.264;26.940;2023-12-20T03:23:36;28.58;;;19.23;;
40871;SDS011;26591;43.264;26.940;2023-12-20T03:26:01;29.70;;;18.63;;
40871;SDS011;26591;43.264;26.940;2023-12-20T03:28:29;29.48;;;18.83;;
40871;SDS011;26591;43.264;26.940;2023-12-20T03:30:55;31.73;;;18.02;;
40871;SDS011;26591;43.264;26.940;2023-12-20T03:33:20;21.67;;;14.48;;
40871;SDS011;26591;43.264;26.940;2023-12-20T03:35:46;21.88;;;13.98;;
40871;SDS011;26591;43.264;26.940;2023-12-20T03:38:11;24.48;;;14.25;;
40871;SDS011;26591;43.264;26.940;2023-12-20T03:40:37;21.60;;;13.35;;
40871;SDS011;26591;43.264;26.940;2023-12-20T03:43:03;19.25;;;13.75;;
40871;SDS011;26591;43.264;26.940;2023-12-20T03:45:28;20.92;;;13.45;;
40871;SDS011;26591;43.264;26.940;2023-12-20T03:47:54;18.63;;;12.70;;
40871;SDS011;26591;43.264;26.940;2023-12-20T03:50:24;23.20;;;15.77;;
40871;SDS011;26591;43.264;26.940;2023-12-20T03:52:50;26.95;;;16.58;;
40871;SDS011;26591;43.264;26.940;2023-12-20T03:55:16;24.92;;;17.90;;
40871;SDS011;26591;43.264;26.940;2023-12-20T03:57:41;28.27;;;17.05;;
40871;SDS011;26591;43.264;26.940;2023-12-20T04:00:07;23.52;;;15.35;;
40871;SDS011;26591;43.264;26.940;2023-12-20T04:02:39;24.35;;;16.73;;
40871;SDS011;26591;43.264;26.940;2023-12-20T04:05:06;23.70;;;15.57;;
40871;SDS011;26591;43.264;26.940;2023-12-20T04:07:32;24.35;;;15.45;;
40871;SDS011;26591;43.264;26.940;2023-12-20T04:09:58;26.23;;;15.98;;
40871;SDS011;26591;43.264;26.940;2023-12-20T04:12:23;23.10;;;15.20;;
40871;SDS011;26591;43.264;26.940;2023-12-20T04:14:48;24.98;;;16.75;;
40871;SDS011;26591;43.264;26.940;2023-12-20T04:17:15;23.23;;;16.55;;
40871;SDS011;26591;43.264;26.940;2023-12-20T04:19:41;26.52;;;17.20;;
40871;SDS011;26591;43.264;26.940;2023-12-20T04:22:07;24.88;;;17.05;;
40871;SDS011;26591;43.264;26.940;2023-12-20T04:24:32;24.02;;;16.98;;
40871;SDS011;26591;43.264;26.940;2023-12-20T04:26:58;24.45;;;17.23;;
40871;SDS011;26591;43.264;26.940;2023-12-20T04:29:23;31.40;;;19.13;;
40871;SDS011;26591;43.264;26.940;2023-12-20T04:31:49;28.73;;;18.63;;
40871;SDS011;26591;43.264;26.940;2023-12-20T04:34:16;28.52;;;20.13;;
40871;SDS011;26591;43.264;26.940;2023-12-20T04:36:42;43.42;;;25.75;;
40871;SDS011;26591;43.264;26.940;2023-12-20T04:39:07;43.72;;;26.55;;
40871;SDS011;26591;43.264;26.940;2023-12-20T04:41:33;37.03;;;23.30;;
40871;SDS011;26591;43.264;26.940;2023-12-20T04:43:58;36.83;;;22.23;;
40871;SDS011;26591;43.264;26.940;2023-12-20T04:46:26;42.60;;;23.77;;
40871;SDS011;26591;43.264;26.940;2023-12-20T04:48:51;39.88;;;23.10;;
40871;SDS011;26591;43.264;26.940;2023-12-20T04:51:17;43.95;;;24.05;;
40871;SDS011;26591;43.264;26.940;2023-12-20T04:53:42;39.70;;;22.13;;
40871;SDS011;26591;43.264;26.940;2023-12-20T04:56:08;34.10;;;21.27;;
40871;SDS011;26591;43.264;26.940;2023-12-20T04:58:33;38.55;;;23.83;;
40871;SDS011;26591;43.264;26.940;2023-12-20T05:00:59;41.28;;;25.00;;
40871;SDS011;26591;43.264;26.940;2023-12-20T05:03:24;40.85;;;23.73;;
40871;SDS011;26591;43.264;26.940;2023-12-20T05:05:50;51.88;;;32.75;;
40871;SDS011;26591;43.264;26.940;2023-12-20T05:08:15;51.95;;;30.67;;
40871;SDS011;26591;43.264;26.940;2023-12-20T05:10:41;53.08;;;31.77;;
40871;SDS011;26591;43.264;26.940;2023-12-20T05:13:08;46.70;;;29.77;;
40871;SDS011;26591;43.264;26.940;2023-12-20T05:15:34;55.53;;;34.20;;
40871;SDS011;26591;43.264;26.940;2023-12-20T05:18:00;67.07;;;38.35;;
40871;SDS011;26591;43.264;26.940;2023-12-20T05:20:25;63.72;;;35.65;;
40871;SDS011;26591;43.264;26.940;2023-12-20T05:22:51;51.38;;;28.98;;
40871;SDS011;26591;43.264;26.940;2023-12-20T05:25:16;51.78;;;29.92;;
40871;SDS011;26591;43.264;26.940;2023-12-20T05:27:41;50.85;;;28.92;;
40871;SDS011;26591;43.264;26.940;2023-12-20T05:30:07;44.70;;;29.10;;
40871;SDS011;26591;43.264;26.940;2023-12-20T05:32:33;56.08;;;31.83;;
40871;SDS011;26591;43.264;26.940;2023-12-20T05:34:58;56.58;;;35.08;;
40871;SDS011;26591;43.264;26.940;2023-12-20T05:37:24;37.08;;;26.15;;
40871;SDS011;26591;43.264;26.940;2023-12-20T05:39:49;38.47;;;24.98;;
40871;SDS011;26591;43.264;26.940;2023-12-20T05:42:15;38.10;;;22.75;;
40871;SDS011;26591;43.264;26.940;2023-12-20T05:44:40;39.42;;;22.95;;
40871;SDS011;26591;43.264;26.940;2023-12-20T05:47:05;40.60;;;23.25;;
40871;SDS011;26591;43.264;26.940;2023-12-20T05:49:31;50.85;;;24.38;;
40871;SDS011;26591;43.264;26.940;2023-12-20T05:51:56;49.95;;;26.45;;
40871;SDS011;26591;43.264;26.940;2023-12-20T05:54:22;44.05;;;28.20;;
40871;SDS011;26591;43.264;26.940;2023-12-20T05:56:48;48.33;;;27.27;;
40871;SDS011;26591;43.264;26.940;2023-12-20T05:59:13;47.42;;;28.65;;
40871;SDS011;26591;43.264;26.940;2023-12-20T06:01:39;45.15;;;25.95;;
40871;SDS011;26591;43.264;26.940;2023-12-20T06:04:05;43.35;;;26.02;;
40871;SDS011;26591;43.264;26.940;2023-12-20T06:06:43;39.00;;;23.88;;
40871;SDS011;26591;43.264;26.940;2023-12-20T06:09:08;37.70;;;21.95;;
40871;SDS011;26591;43.264;26.940;2023-12-20T06:11:34;35.40;;;22.05;;
40871;SDS011;26591;43.264;26.940;2023-12-20T06:14:00;35.45;;;24.75;;
40871;SDS011;26591;43.264;26.940;2023-12-20T06:19:26;41.20;;;22.60;;
40871;SDS011;26591;43.264;26.940;2023-12-20T06:21:52;33.83;;;21.10;;
40871;SDS011;26591;43.264;26.940;2023-12-20T06:24:17;41.75;;;21.33;;
40871;SDS011;26591;43.264;26.940;2023-12-20T06:26:42;29.52;;;19.70;;
40871;SDS011;26591;43.264;26.940;2023-12-20T06:29:08;29.98;;;19.20;;
40871;SDS011;26591;43.264;26.940;2023-12-20T06:31:34;42.58;;;23.30;;
40871;SDS011;26591;43.264;26.940;2023-12-20T06:33:59;38.90;;;22.52;;
40871;SDS011;26591;43.264;26.940;2023-12-20T06:36:25;53.75;;;29.15;;
40871;SDS011;26591;43.264;26.940;2023-12-20T06:38:51;29.13;;;18.52;;
40871;SDS011;26591;43.264;26.940;2023-12-20T06:41:17;26.60;;;16.55;;
40871;SDS011;26591;43.264;26.940;2023-12-20T06:43:43;32.58;;;19.05;;
40871;SDS011;26591;43.264;26.940;2023-12-20T06:46:14;22.95;;;15.00;;
40871;SDS011;26591;43.264;26.940;2023-12-20T06:48:40;29.02;;;16.83;;
40871;SDS011;26591;43.264;26.940;2023-12-20T06:51:06;25.92;;;15.50;;
40871;SDS011;26591;43.264;26.940;2023-12-20T06:53:31;31.30;;;19.48;;
40871;SDS011;26591;43.264;26.940;2023-12-20T06:55:57;29.20;;;17.70;;
40871;SDS011;26591;43.264;26.940;2023-12-20T06:58:22;27.60;;;16.63;;
40871;SDS011;26591;43.264;26.940;2023-12-20T07:00:49;26.42;;;17.05;;
40871;SDS011;26591;43.264;26.940;2023-12-20T07:03:15;28.95;;;18.95;;
40871;SDS011;26591;43.264;26.940;2023-12-20T07:05:41;33.35;;;19.33;;
40871;SDS011;26591;43.264;26.940;2023-12-20T07:08:09;29.17;;;20.17;;
40871;SDS011;26591;43.264;26.940;2023-12-20T07:10:35;39.35;;;20.63;;
40871;SDS011;26591;43.264;26.940;2023-12-20T07:13:00;36.53;;;21.73;;
40871;SDS011;26591;43.264;26.940;2023-12-20T07:15:29;39.92;;;21.98;;
40871;SDS011;26591;43.264;26.940;2023-12-20T07:17:54;30.17;;;18.35;;
40871;SDS011;26591;43.264;26.940;2023-12-20T07:20:20;34.15;;;19.98;;
40871;SDS011;26591;43.264;26.940;2023-12-20T07:22:45;35.97;;;20.60;;
40871;SDS011;26591;43.264;26.940;2023-12-20T07:25:11;46.40;;;26.67;;
40871;SDS011;26591;43.264;26.940;2023-12-20T07:27:48;40.67;;;20.73;;
40871;SDS011;26591;43.264;26.940;2023-12-20T07:30:14;26.83;;;12.80;;
40871;SDS011;26591;43.264;26.940;2023-12-20T07:32:40;38.00;;;30.42;;
40871;SDS011;26591;43.264;26.940;2023-12-20T07:35:05;26.83;;;14.45;;
40871;SDS011;26591;43.264;26.940;2023-12-20T07:37:31;16.33;;;11.35;;
40871;SDS011;26591;43.264;26.940;2023-12-20T07:39:57;15.13;;;11.48;;
40871;SDS011;26591;43.264;26.940;2023-12-20T07:42:22;19.80;;;13.32;;
40871;SDS011;26591;43.264;26.940;2023-12-20T07:44:48;29.38;;;13.73;;
40871;SDS011;26591;43.264;26.940;2023-12-20T07:47:13;16.02;;;12.30;;
40871;SDS011;26591;43.264;26.940;2023-12-20T07:49:42;23.25;;;13.10;;
40871;SDS011;26591;43.264;26.940;2023-12-20T07:52:08;34.13;;;16.55;;
40871;SDS011;26591;43.264;26.940;2023-12-20T07:54:33;30.48;;;18.90;;
40871;SDS011;26591;43.264;26.940;2023-12-20T07:56:58;25.50;;;15.73;;
40871;SDS011;26591;43.264;26.940;2023-12-20T07:59:24;22.92;;;15.02;;
40871;SDS011;26591;43.264;26.940;2023-12-20T08:01:49;24.95;;;15.32;;
40871;SDS011;26591;43.264;26.940;2023-12-20T08:04:15;28.00;;;16.02;;
40871;SDS011;26591;43.264;26.940;2023-12-20T08:06:40;29.58;;;15.07;;
40871;SDS011;26591;43.264;26.940;2023-12-20T08:09:06;40.40;;;18.58;;
40871;SDS011;26591;43.264;26.940;2023-12-20T08:11:31;43.22;;;16.80;;
40871;SDS011;26591;43.264;26.940;2023-12-20T08:13:57;27.02;;;13.57;;
40871;SDS011;26591;43.264;26.940;2023-12-20T08:16:23;23.90;;;13.02;;
40871;SDS011;26591;43.264;26.940;2023-12-20T08:18:48;24.80;;;12.02;;
40871;SDS011;26591;43.264;26.940;2023-12-20T08:21:14;24.38;;;13.63;;
40871;SDS011;26591;43.264;26.940;2023-12-20T08:23:39;34.42;;;15.00;;
40871;SDS011;26591;43.264;26.940;2023-12-20T08:26:05;20.90;;;13.32;;
40871;SDS011;26591;43.264;26.940;2023-12-20T08:28:34;28.98;;;12.20;;
40871;SDS011;26591;43.264;26.940;2023-12-20T08:30:59;19.02;;;13.02;;
40871;SDS011;26591;43.264;26.940;2023-12-20T08:33:27;17.15;;;11.98;;
40871;SDS011;26591;43.264;26.940;2023-12-20T08:35:52;22.10;;;11.82;;
40871;SDS011;26591;43.264;26.940;2023-12-20T08:38:18;46.80;;;16.90;;
40871;SDS011;26591;43.264;26.940;2023-12-20T08:40:44;102.10;;;33.17;;
40871;SDS011;26591;43.264;26.940;2023-12-20T08:43:09;41.60;;;16.65;;
40871;SDS011;26591;43.264;26.940;2023-12-20T08:45:35;23.85;;;12.15;;
40871;SDS011;26591;43.264;26.940;2023-12-20T08:48:00;23.63;;;12.10;;
40871;SDS011;26591;43.264;26.940;2023-12-20T08:50:26;26.38;;;12.48;;
40871;SDS011;26591;43.264;26.940;2023-12-20T08:52:52;24.33;;;12.75;;
40871;SDS011;26591;43.264;26.940;2023-12-20T08:58:39;27.77;;;13.00;;
40871;SDS011;26591;43.264;26.940;2023-12-20T09:01:07;25.48;;;12.75;;
40871;SDS011;26591;43.264;26.940;2023-12-20T09:03:32;25.05;;;14.35;;
40871;SDS011;26591;43.264;26.940;2023-12-20T09:05:58;25.60;;;11.98;;
40871;SDS011;26591;43.264;26.940;2023-12-20T09:08:23;22.92;;;12.25;;
40871;SDS011;26591;43.264;26.940;2023-12-20T09:10:49;34.13;;;12.05;;
40871;SDS011;26591;43.264;26.940;2023-12-20T09:13:15;45.65;;;15.50;;
40871;SDS011;26591;43.264;26.940;2023-12-20T09:15:40;67.20;;;17.83;;
40871;SDS011;26591;43.264;26.940;2023-12-20T09:18:09;33.08;;;14.27;;
40871;SDS011;26591;43.264;26.940;2023-12-20T09:20:35;45.70;;;14.02;;
40871;SDS011;26591;43.264;26.940;2023-12-20T09:23:00;47.88;;;14.35;;
40871;SDS011;26591;43.264;26.940;2023-12-20T09:25:26;31.67;;;14.48;;
40871;SDS011;26591;43.264;26.940;2023-12-20T09:27:54;70.57;;;16.48;;
40871;SDS011;26591;43.264;26.940;2023-12-20T09:30:19;39.15;;;18.20;;
40871;SDS011;26591;43.264;26.940;2023-12-20T09:32:45;49.08;;;17.13;;
40871;SDS011;26591;43.264;26.940;2023-12-20T09:35:11;63.35;;;17.67;;
40871;SDS011;26591;43.264;26.940;2023-12-20T09:37:36;93.45;;;19.85;;
40871;SDS011;26591;43.264;26.940;2023-12-20T09:40:02;78.75;;;20.63;;
40871;SDS011;26591;43.264;26.940;2023-12-20T09:43:14;50.88;;;15.48;;
40871;SDS011;26591;43.264;26.940;2023-12-20T09:45:24;47.50;;;17.30;;
40871;SDS011;26591;43.264;26.940;2023-12-20T09:47:50;45.63;;;16.55;;
40871;SDS011;26591;43.264;26.940;2023-12-20T09:50:20;65.82;;;16.65;;
40871;SDS011;26591;43.264;26.940;2023-12-20T09:52:50;47.72;;;16.85;;
40871;SDS011;26591;43.264;26.940;2023-12-20T09:55:17;60.63;;;16.08;;
40871;SDS011;26591;43.264;26.940;2023-12-20T09:57:44;57.08;;;15.32;;
40871;SDS011;26591;43.264;26.940;2023-12-20T10:00:13;41.72;;;15.52;;
40871;SDS011;26591;43.264;26.940;2023-12-20T10:02:50;41.70;;;17.85;;
40871;SDS011;26591;43.264;26.940;2023-12-20T10:05:33;50.10;;;16.42;;
40871;SDS011;26591;43.264;26.940;2023-12-20T10:07:59;55.83;;;15.98;;
40871;SDS011;26591;43.264;26.940;2023-12-20T10:10:26;25.95;;;10.13;;
40871;SDS011;26591;43.264;26.940;2023-12-20T10:13:02;21.10;;;9.40;;
40871;SDS011;26591;43.264;26.940;2023-12-20T10:15:28;21.17;;;8.50;;
40871;SDS011;26591;43.264;26.940;2023-12-20T10:17:53;35.45;;;9.63;;
40871;SDS011;26591;43.264;26.940;2023-12-20T10:20:19;24.02;;;6.85;;
40871;SDS011;26591;43.264;26.940;2023-12-20T10:22:45;34.50;;;8.23;;
40871;SDS011;26591;43.264;26.940;2023-12-20T10:25:11;31.52;;;8.85;;
40871;SDS011;26591;43.264;26.940;2023-12-20T10:27:37;14.93;;;6.70;;
40871;SDS011;26591;43.264;26.940;2023-12-20T10:30:02;22.35;;;6.50;;
40871;SDS011;26591;43.264;26.940;2023-12-20T10:32:29;45.35;;;8.13;;
40871;SDS011;26591;43.264;26.940;2023-12-20T10:34:55;17.40;;;5.40;;
40871;SDS011;26591;43.264;26.940;2023-12-20T10:37:21;37.65;;;9.57;;
40871;SDS011;26591;43.264;26.940;2023-12-20T10:39:49;36.17;;;11.68;;
40871;SDS011;26591;43.264;26.940;2023-12-20T10:42:22;22.45;;;7.72;;
40871;SDS011;26591;43.264;26.940;2023-12-20T10:44:51;18.45;;;9.25;;
40871;SDS011;26591;43.264;26.940;2023-12-20T10:47:18;17.92;;;7.70;;
40871;SDS011;26591;43.264;26.940;2023-12-20T10:49:45;12.90;;;5.60;;
40871;SDS011;26591;43.264;26.940;2023-12-20T10:52:11;19.52;;;7.10;;
40871;SDS011;26591;43.264;26.940;2023-12-20T10:54:38;11.38;;;5.05;;
40871;SDS011;26591;43.264;26.940;2023-12-20T10:57:05;21.95;;;6.35;;
40871;SDS011;26591;43.264;26.940;2023-12-20T10:59:32;12.30;;;4.53;;
40871;SDS011;26591;43.264;26.940;2023-12-20T11:02:00;7.93;;;4.45;;
40871;SDS011;26591;43.264;26.940;2023-12-20T11:04:31;18.92;;;4.97;;
40871;SDS011;26591;43.264;26.940;2023-12-20T11:07:25;8.80;;;4.65;;
40871;SDS011;26591;43.264;26.940;2023-12-20T11:10:10;11.32;;;5.15;;
40871;SDS011;26591;43.264;26.940;2023-12-20T11:12:47;8.07;;;5.07;;
40871;SDS011;26591;43.264;26.940;2023-12-20T11:15:17;12.10;;;4.90;;
40871;SDS011;26591;43.264;26.940;2023-12-20T11:17:45;6.50;;;4.13;;
40871;SDS011;26591;43.264;26.940;2023-12-20T11:20:13;12.32;;;6.55;;
40871;SDS011;26591;43.264;26.940;2023-12-20T11:22:39;11.80;;;6.70;;
40871;SDS011;26591;43.264;26.940;2023-12-20T11:25:16;11.43;;;5.22;;
40871;SDS011;26591;43.264;26.940;2023-12-20T11:27:42;9.43;;;5.20;;
40871;SDS011;26591;43.264;26.940;2023-12-20T11:30:10;7.78;;;4.82;;
40871;SDS011;26591;43.264;26.940;2023-12-20T11:35:59;6.97;;;4.10;;
40871;SDS011;26591;43.264;26.940;2023-12-20T11:38:25;8.55;;;4.55;;
40871;SDS011;26591;43.264;26.940;2023-12-20T11:40:53;13.77;;;5.93;;
40871;SDS011;26591;43.264;26.940;2023-12-20T11:43:34;10.68;;;4.13;;
40871;SDS011;26591;43.264;26.940;2023-12-20T11:46:07;9.93;;;5.10;;
40871;SDS011;26591;43.264;26.940;2023-12-20T11:48:39;17.85;;;10.32;;
40871;SDS011;26591;43.264;26.940;2023-12-20T11:51:12;20.10;;;11.80;;
40871;SDS011;26591;43.264;26.940;2023-12-20T11:53:39;20.63;;;7.80;;
40871;SDS011;26591;43.264;26.940;2023-12-20T11:56:05;17.15;;;8.10;;
40871;SDS011;26591;43.264;26.940;2023-12-20T11:58:32;9.50;;;4.90;;
40871;SDS011;26591;43.264;26.940;2023-12-20T12:00:57;15.95;;;5.22;;
40871;SDS011;26591;43.264;26.940;2023-12-20T12:03:23;6.25;;;3.88;;
40871;SDS011;26591;43.264;26.940;2023-12-20T12:05:49;4.57;;;3.00;;
40871;SDS011;26591;43.264;26.940;2023-12-20T12:08:15;11.43;;;4.10;;
40871;SDS011;26591;43.264;26.940;2023-12-20T12:10:42;13.88;;;4.82;;
40871;SDS011;26591;43.264;26.940;2023-12-20T12:13:08;6.72;;;3.50;;
40871;SDS011;26591;43.264;26.940;2023-12-20T12:15:35;5.47;;;3.22;;
40871;SDS011;26591;43.264;26.940;2023-12-20T12:18:01;20.90;;;6.72;;
40871;SDS011;26591;43.264;26.940;2023-12-20T12:20:27;8.88;;;3.45;;
40871;SDS011;26591;43.264;26.940;2023-12-20T12:23:02;7.43;;;3.20;;
40871;SDS011;26591;43.264;26.940;2023-12-20T12:25:29;10.85;;;5.05;;
40871;SDS011;26591;43.264;26.940;2023-12-20T12:27:56;6.57;;;3.88;;
40871;SDS011;26591;43.264;26.940;2023-12-20T12:30:23;16.33;;;5.20;;
40871;SDS011;26591;43.264;26.940;2023-12-20T12:32:48;6.95;;;4.07;;
40871;SDS011;26591;43.264;26.940;2023-12-20T12:35:17;12.07;;;4.97;;
40871;SDS011;26591;43.264;26.940;2023-12-20T12:37:42;10.57;;;4.72;;
40871;SDS011;26591;43.264;26.940;2023-12-20T12:40:12;9.60;;;4.55;;
40871;SDS011;26591;43.264;26.940;2023-12-20T12:42:39;7.38;;;4.53;;
40871;SDS011;26591;43.264;26.940;2023-12-20T12:45:06;26.48;;;6.63;;
40871;SDS011;26591;43.264;26.940;2023-12-20T12:47:32;6.03;;;3.90;;
40871;SDS011;26591;43.264;26.940;2023-12-20T12:49:58;41.03;;;6.90;;
40871;SDS011;26591;43.264;26.940;2023-12-20T12:52:24;42.55;;;7.95;;
40871;SDS011;26591;43.264;26.940;2023-12-20T12:55:08;21.35;;;6.10;;
40871;SDS011;26591;43.264;26.940;2023-12-20T12:57:33;26.27;;;5.28;;
40871;SDS011;26591;43.264;26.940;2023-12-20T12:59:59;10.00;;;5.10;;
40871;SDS011;26591;43.264;26.940;2023-12-20T13:02:24;17.65;;;10.75;;
40871;SDS011;26591;43.264;26.940;2023-12-20T13:04:50;29.58;;;10.90;;
40871;SDS011;26591;43.264;26.940;2023-12-20T13:07:16;14.57;;;8.32;;
40871;SDS011;26591;43.264;26.940;2023-12-20T13:09:42;20.25;;;11.02;;
40871;SDS011;26591;43.264;26.940;2023-12-20T13:12:07;23.48;;;11.23;;
40871;SDS011;26591;43.264;26.940;2023-12-20T13:14:33;37.90;;;25.92;;
40871;SDS011;26591;43.264;26.940;2023-12-20T13:17:00;28.65;;;22.17;;
40871;SDS011;26591;43.264;26.940;2023-12-20T13:19:26;8.77;;;5.00;;
40871;SDS011;26591;43.264;26.940;2023-12-20T13:21:52;7.82;;;5.20;;
40871;SDS011;26591;43.264;26.940;2023-12-20T13:24:18;13.02;;;5.75;;
40871;SDS011;26591;43.264;26.940;2023-12-20T13:26:43;44.45;;;9.68;;
40871;SDS011;26591;43.264;26.940;2023-12-20T13:29:09;41.30;;;9.30;;
40871;SDS011;26591;43.264;26.940;2023-12-20T13:31:34;33.50;;;7.40;;
40871;SDS011;26591;43.264;26.940;2023-12-20T13:34:01;37.22;;;9.95;;
40871;SDS011;26591;43.264;26.940;2023-12-20T13:36:27;57.70;;;10.40;;
40871;SDS011;26591;43.264;26.940;2023-12-20T13:38:52;66.43;;;16.90;;
40871;SDS011;26591;43.264;26.940;2023-12-20T13:41:18;73.07;;;21.80;;
40871;SDS011;26591;43.264;26.940;2023-12-20T13:43:43;26.23;;;7.45;;
40871;SDS011;26591;43.264;26.940;2023-12-20T13:46:09;83.13;;;20.33;;
40871;SDS011;26591;43.264;26.940;2023-12-20T13:48:34;19.63;;;7.07;;
40871;SDS011;26591;43.264;26.940;2023-12-20T13:51:00;9.15;;;3.30;;
40871;SDS011;26591;43.264;26.940;2023-12-20T13:53:25;10.38;;;5.65;;
40871;SDS011;26591;43.264;26.940;2023-12-20T13:55:51;19.40;;;5.60;;
40871;SDS011;26591;43.264;26.940;2023-12-20T13:58:16;35.67;;;13.90;;
40871;SDS011;26591;43.264;26.940;2023-12-20T14:00:42;42.95;;;9.32;;
40871;SDS011;26591;43.264;26.940;2023-12-20T14:03:07;38.00;;;6.45;;
40871;SDS011;26591;43.264;26.940;2023-12-20T14:05:35;19.02;;;5.55;;
40871;SDS011;26591;43.264;26.940;2023-12-20T14:08:00;7.38;;;4.20;;
40871;SDS011;26591;43.264;26.940;2023-12-20T14:10:26;14.02;;;4.40;;
40871;SDS011;26591;43.264;26.940;2023-12-20T14:12:52;8.63;;;4.00;;
40871;SDS011;26591;43.264;26.940;2023-12-20T14:15:18;8.57;;;3.55;;
40871;SDS011;26591;43.264;26.940;2023-12-20T14:17:44;11.00;;;3.92;;
40871;SDS011;26591;43.264;26.940;2023-12-20T14:20:09;7.80;;;4.03;;
40871;SDS011;26591;43.264;26.940;2023-12-20T14:22:38;12.98;;;3.70;;